Helen J — CFN6439 — position and weather

sailwx.info

Track history (hours):
 
Tides and Currents Weather Stations Pressure Air Temp Water Temp Dewpoint Dewpoint Depression Visibility Wind Speed Wind Dir Waves Ship Positions

Helen J

Last reported at 2018-Jun-19 00:49 UTC. Time now 2018-Jun-19 14:09 UTC.
Position N 48°57' W 123°42'.

Length 15 m; draft 3.6 m.

Type: Towing. MMSI: 316024235.

Date/timePositionNaut miles runAvg speedWind from/ knotsBaromVisibWave heightAir tempDewpointWater temp
2018-Jun-19 00:49N 48°57' W 123°42'0 0.3
2018-Jun-18 23:46N 48°57' W 123°41'1 1.9
2018-Jun-18 23:25N 48°57' W 123°40'2 1.4
2018-Jun-18 21:56N 48°56' W 123°43'0 0.7
2018-Jun-18 21:21N 48°55' W 123°42'0 0.2
2018-Jun-18 20:58N 48°55' W 123°43'0 0.1
2018-Jun-18 20:20N 48°55' W 123°42'0 0.6
2018-Jun-18 20:00N 48°56' W 123°43'1 1.8
2018-Jun-18 19:20N 48°57' W 123°42'0 0.1
2018-Jun-18 18:57N 48°57' W 123°41'0 0.3
2018-Jun-18 18:30N 48°57' W 123°41'0 0.4
2018-Jun-18 17:59N 48°56' W 123°41'1 1.3
2018-Jun-18 17:29N 48°56' W 123°41'1 1.2
2018-Jun-18 17:00N 48°55' W 123°40'1 1.3
2018-Jun-18 16:28N 48°55' W 123°39'1 1.6
2018-Jun-18 16:00N 48°54' W 123°38'1 2.1
2018-Jun-18 15:30N 48°54' W 123°37'1 1.9
2018-Jun-18 15:00N 48°53' W 123°36'1 2.0
2018-Jun-18 14:28N 48°52' W 123°36'1 2.0
2018-Jun-18 14:00N 48°51' W 123°35'1 1.9
2018-Jun-18 13:30N 48°50' W 123°35'1 1.7
2018-Jun-18 13:00N 48°49' W 123°35'1 1.6
2018-Jun-18 12:30N 48°49' W 123°34'1 1.7
2018-Jun-18 12:00N 48°48' W 123°33'1 2.0
2018-Jun-18 11:30N 48°47' W 123°33'1 2.4
2018-Jun-18 11:00N 48°46' W 123°34'1 1.8
2018-Jun-18 10:30N 48°45' W 123°34'1 1.1
2018-Jun-18 10:00N 48°44' W 123°34'0 0.7
2018-Jun-18 09:30N 48°44' W 123°33'1 1.2
2018-Jun-18 09:00N 48°44' W 123°32'1 1.2
2018-Jun-18 08:30N 48°44' W 123°32'1 1.1
2018-Jun-18 08:00N 48°43' W 123°31'0 0.9
2018-Jun-18 07:30N 48°43' W 123°31'1 1.6
2018-Jun-18 07:00N 48°42' W 123°30'1 2.2
2018-Jun-18 06:30N 48°43' W 123°28'1 2.2
2018-Jun-18 06:00N 48°43' W 123°26'1 2.1
2018-Jun-18 05:30N 48°43' W 123°25'1 1.4
2018-Jun-18 05:00N 48°43' W 123°24'1 1.3
2018-Jun-18 04:30N 48°42' W 123°23'1 1.5
2018-Jun-18 04:00N 48°42' W 123°22'1 1.9
2018-Jun-18 03:30N 48°41' W 123°21'1 1.9
2018-Jun-18 03:00N 48°40' W 123°21'2 3.3
2018-Jun-18 02:30N 48°39' W 123°22'1 2.0
2018-Jun-18 02:00N 48°38' W 123°23'2 3.3
2018-Jun-18 01:27N 48°36' W 123°22'2 4.0
2018-Jun-18 01:00N 48°34' W 123°21'2 3.6
2018-Jun-18 00:29N 48°32' W 123°21'2 2.7
2018-Jun-17 23:55N 48°31' W 123°20'1 2.6
2018-Jun-17 23:28N 48°30' W 123°18'1 2.3
2018-Jun-17 23:00N 48°30' W 123°17'1 2.0
2018-Jun-17 22:30N 48°29' W 123°16'1 1.7
2018-Jun-17 22:00N 48°28' W 123°15'1 1.7
2018-Jun-17 21:30N 48°27' W 123°15'1 1.6
2018-Jun-17 21:00N 48°27' W 123°16'1 1.7
2018-Jun-17 20:30N 48°26' W 123°17'1 1.8
2018-Jun-17 20:00N 48°25' W 123°18'1 1.5
2018-Jun-17 19:30N 48°25' W 123°18'1 1.6
2018-Jun-17 18:57N 48°25' W 123°19'6 0.7
2018-Jun-17 10:23N 48°25' W 123°28'6 0.2
2018-Jun-16 01:21N 48°24' W 123°19'3 7.6
2018-Jun-16 01:00N 48°26' W 123°16'4 8.5
2018-Jun-16 00:30N 48°30' W 123°17'5 8.4
2018-Jun-15 23:51N 48°36' W 123°19'3 7.6
2018-Jun-15 23:30N 48°38' W 123°21'4 8.1
2018-Jun-15 23:00N 48°42' W 123°22'4 8.5
2018-Jun-15 22:30N 48°43' W 123°28'5 9.4
2018-Jun-15 22:00N 48°44' W 123°35'2 3.2
2018-Jun-15 21:30N 48°45' W 123°37'1 1.2
2018-Jun-15 21:00N 48°45' W 123°36'1 2.2
2018-Jun-15 20:30N 48°45' W 123°35'1 2.0
2018-Jun-15 20:00N 48°44' W 123°34'1 1.4
2018-Jun-15 19:30N 48°44' W 123°33'0 0.4
2018-Jun-15 19:00N 48°44' W 123°32'3 5.5
2018-Jun-15 18:30N 48°45' W 123°36'1 1.2
2018-Jun-15 18:00N 48°45' W 123°37'1 1.2
2018-Jun-15 17:30N 48°45' W 123°36'1 1.5
2018-Jun-15 17:00N 48°45' W 123°35'1 1.5
2018-Jun-15 16:30N 48°44' W 123°34'1 1.2
2018-Jun-15 16:00N 48°45' W 123°34'1 2.7
2018-Jun-15 15:30N 48°46' W 123°34'2 3.2
2018-Jun-15 15:00N 48°48' W 123°33'1 2.3
2018-Jun-15 14:30N 48°49' W 123°34'1 2.5
2018-Jun-15 14:00N 48°50' W 123°35'1 2.3
2018-Jun-15 13:30N 48°51' W 123°35'1 2.1
2018-Jun-15 13:00N 48°52' W 123°36'1 2.2
2018-Jun-15 12:30N 48°53' W 123°36'1 2.2
2018-Jun-15 12:00N 48°54' W 123°37'1 2.3
2018-Jun-15 11:30N 48°55' W 123°39'1 2.2
2018-Jun-15 11:00N 48°55' W 123°40'1 2.0
2018-Jun-15 10:29N 48°56' W 123°42'1 1.2
2018-Jun-15 09:57N 48°56' W 123°42'0 0.1
2018-Jun-15 09:29N 48°56' W 123°42'0 0.6
2018-Jun-15 08:50N 48°56' W 123°42'0 0.6
2018-Jun-15 08:30N 48°56' W 123°42'0 0.2
2018-Jun-15 07:07N 48°56' W 123°43'0 2.6
2018-Jun-15 07:01N 48°56' W 123°42'0 0.2
2018-Jun-15 06:30N 48°56' W 123°42'1 1.4
2018-Jun-15 05:57N 48°56' W 123°43'2 3.0
2018-Jun-15 05:19N 48°58' W 123°45'21 1.1
2018-Jun-14 10:25N 49°18' W 123°38'7 1.4
2018-Jun-14 05:26N 49°23' W 123°30'1 1.5
2018-Jun-14 04:56N 49°24' W 123°30'1 1.5
2018-Jun-14 04:29N 49°24' W 123°29'1 1.4
2018-Jun-14 03:54N 49°25' W 123°28'1 1.4
2018-Jun-14 03:30N 49°25' W 123°28'1 1.3
2018-Jun-14 02:33N 49°27' W 123°27'0 1.2
2018-Jun-14 02:20N 49°27' W 123°28'0 1.2
2018-Jun-14 01:57N 49°27' W 123°28'1 1.1
2018-Jun-14 01:30N 49°28' W 123°28'1 1.1
2018-Jun-14 00:59N 49°28' W 123°28'1 1.0
2018-Jun-14 00:28N 49°29' W 123°28'1 1.0
2018-Jun-13 23:43N 49°29' W 123°27'0 0.3
2018-Jun-13 22:15N 49°30' W 123°27'0 0.0
2018-Jun-13 21:58N 49°30' W 123°27'0 0.0
2018-Jun-13 21:30N 49°30' W 123°27'12 4.4
2018-Jun-13 18:54N 49°19' W 123°23'411.1
2018-Jun-13 18:30N 49°16' W 123°18'3 6.3
2018-Jun-13 17:59N 49°14' W 123°14'0 0.0
2018-Jun-13 17:29N 49°14' W 123°14'0 0.0
2018-Jun-13 17:00N 49°14' W 123°14'0 0.0
2018-Jun-13 16:30N 49°14' W 123°14'0 0.0
2018-Jun-13 16:00N 49°14' W 123°14'0 0.0
2018-Jun-13 15:29N 49°14' W 123°14'0 0.0
2018-Jun-13 14:59N 49°14' W 123°14'0 0.0
2018-Jun-13 14:30N 49°14' W 123°14'0 0.0
2018-Jun-13 14:00N 49°14' W 123°14'0 0.0
2018-Jun-13 13:30N 49°14' W 123°14'0 0.0
2018-Jun-13 12:58N 49°14' W 123°14'0 0.0
2018-Jun-13 12:30N 49°14' W 123°14'0 0.6
2018-Jun-13 12:00N 49°14' W 123°14'0 0.1
2018-Jun-13 11:30N 49°14' W 123°14'0 0.5
2018-Jun-13 11:00N 49°14' W 123°14'2 4.4
2018-Jun-13 10:27N 49°15' W 123°17'2 5.1
2018-Jun-13 10:00N 49°14' W 123°14'0 0.3
2018-Jun-13 09:30N 49°14' W 123°14'0 0.0
2018-Jun-13 09:00N 49°14' W 123°14'0 0.0
2018-Jun-13 08:29N 49°14' W 123°14'0 0.0
2018-Jun-13 08:00N 49°14' W 123°14'0 0.0
2018-Jun-13 07:30N 49°14' W 123°14'0 0.0
2018-Jun-13 07:00N 49°14' W 123°14'0 0.4
2018-Jun-13 06:30N 49°14' W 123°14'0 0.9
2018-Jun-13 06:00N 49°14' W 123°14'0 0.4
2018-Jun-13 05:22N 49°14' W 123°14'0 0.0
2018-Jun-13 05:00N 49°14' W 123°14'0 0.0
2018-Jun-13 04:28N 49°14' W 123°14'0 0.0
2018-Jun-13 04:00N 49°14' W 123°14'0 0.0
2018-Jun-13 03:29N 49°14' W 123°14'0 0.0
2018-Jun-13 03:00N 49°14' W 123°14'0 0.4
2018-Jun-13 02:30N 49°14' W 123°14'0 0.3
2018-Jun-13 01:55N 49°14' W 123°14'0 0.0
2018-Jun-13 01:30N 49°14' W 123°14'0 0.2
2018-Jun-13 01:00N 49°14' W 123°14'0 0.1
2018-Jun-13 00:30N 49°14' W 123°14'0 0.1
2018-Jun-13 00:00N 49°14' W 123°14'0 0.2
2018-Jun-12 23:30N 49°14' W 123°14'0 0.5
2018-Jun-12 23:00N 49°14' W 123°14'0 0.6
2018-Jun-12 22:30N 49°14' W 123°14'1 1.0
2018-Jun-12 22:00N 49°14' W 123°14'0 0.4
2018-Jun-12 21:30N 49°14' W 123°14'2 0.7
2018-Jun-12 18:56N 49°15' W 123°16'1 1.2
2018-Jun-12 18:30N 49°15' W 123°17'1 1.6
2018-Jun-12 18:00N 49°15' W 123°18'0 0.1
2018-Jun-12 17:26N 49°15' W 123°18'0 0.6
2018-Jun-12 17:00N 49°15' W 123°18'0 0.4
2018-Jun-12 16:29N 49°15' W 123°18'0 0.5
2018-Jun-12 15:55N 49°15' W 123°18'0 0.4
2018-Jun-12 15:30N 49°15' W 123°18'1 1.2
2018-Jun-12 15:00N 49°14' W 123°18'1 1.1
2018-Jun-12 14:30N 49°14' W 123°18'1 1.7
2018-Jun-12 14:00N 49°13' W 123°18'1 2.1
2018-Jun-12 13:29N 49°12' W 123°18'1 1.8
2018-Jun-12 12:59N 49°11' W 123°19'1 1.6
2018-Jun-12 12:30N 49°11' W 123°20'1 1.9
2018-Jun-12 12:00N 49°11' W 123°22'1 2.2
2018-Jun-12 11:30N 49°11' W 123°23'1 2.4
2018-Jun-12 10:59N 49°10' W 123°25'1 2.2
2018-Jun-12 10:30N 49°10' W 123°27'2 2.2
2018-Jun-12 09:41N 49°09' W 123°29'16 1.8
2018-Jun-12 00:46N 48°56' W 123°43'18 7.2
2018-Jun-11 22:14N 49°11' W 123°28'2 8.7
2018-Jun-11 22:00N 49°12' W 123°25'4 8.8
2018-Jun-11 21:30N 49°14' W 123°19'3 5.5
2018-Jun-11 20:58N 49°14' W 123°15'0 0.4
2018-Jun-11 20:30N 49°14' W 123°14'0 0.0
2018-Jun-11 20:00N 49°14' W 123°14'2 1.3
2018-Jun-11 18:32N 49°15' W 123°17'0 1.4
2018-Jun-11 18:29N 49°15' W 123°17'1 1.7
2018-Jun-11 17:58N 49°16' W 123°18'0 0.6
2018-Jun-11 17:30N 49°15' W 123°18'0 0.4
2018-Jun-11 17:00N 49°15' W 123°18'0 0.1
2018-Jun-11 16:20N 49°15' W 123°18'0 1.3
2018-Jun-11 15:59N 49°16' W 123°18'1 2.4
2018-Jun-11 15:30N 49°16' W 123°20'1 2.0
2018-Jun-11 14:59N 49°16' W 123°21'1 2.4
2018-Jun-11 14:30N 49°16' W 123°23'1 2.5
2018-Jun-11 14:01N 49°17' W 123°25'1 2.7
2018-Jun-11 13:29N 49°17' W 123°27'1 2.6
2018-Jun-11 12:59N 49°18' W 123°29'1 2.5
2018-Jun-11 12:28N 49°18' W 123°31'35 1.2
2018-Jun-10 07:37N 49°38' W 124°14'0 2.5
2018-Jun-10 07:28N 49°39' W 124°14'2 2.6
2018-Jun-10 06:50N 49°40' W 124°14'1 2.7
2018-Jun-10 06:29N 49°41' W 124°14'1 2.5
2018-Jun-10 06:00N 49°43' W 124°14'1 2.0
2018-Jun-10 05:30N 49°43' W 124°13'1 1.8
2018-Jun-10 05:00N 49°44' W 124°12'0 0.8
2018-Jun-10 04:31N 49°44' W 124°11'0 0.2
2018-Jun-10 04:00N 49°44' W 124°11'0 0.1
2018-Jun-10 03:31N 49°44' W 124°11'0 0.5
2018-Jun-10 03:00N 49°44' W 124°12'0 0.0
2018-Jun-10 02:30N 49°44' W 124°12'1 1.3
2018-Jun-10 02:00N 49°43' W 124°12'2 4.1
2018-Jun-10 01:27N 49°41' W 124°13'5 4.7
2018-Jun-10 00:29N 49°37' W 124°11'3 5.1
2018-Jun-09 23:59N 49°35' W 124°10'43 5.7
2018-Jun-09 16:27N 48°56' W 123°41'4 8.4
2018-Jun-09 15:56N 48°52' W 123°38'1 0.8
2018-Jun-09 15:00N 48°53' W 123°37'1 1.0
2018-Jun-09 14:30N 48°53' W 123°38'0 0.0
2018-Jun-09 14:00N 48°53' W 123°38'0 0.6
2018-Jun-09 13:30N 48°53' W 123°38'4 1.1
2018-Jun-09 09:52N 48°56' W 123°43'0 0.4
2018-Jun-09 09:30N 48°55' W 123°43'0 0.2
2018-Jun-09 09:00N 48°55' W 123°43'0 0.9
2018-Jun-09 08:30N 48°56' W 123°43'1 1.4
2018-Jun-09 08:00N 48°56' W 123°43'2 2.7
2018-Jun-09 07:20N 48°58' W 123°45'  
Track history (hours):
 
Tides and Currents Weather Stations Pressure Air Temp Water Temp Dewpoint Dewpoint Depression Visibility Wind Speed Wind Dir Waves Ship Positions

Helen J

Last reported at 2018-Jun-19 00:49 UTC. Time now 2018-Jun-19 14:09 UTC.
Position N 48°57' W 123°42'.

Length 15 m; draft 3.6 m.

Type: Towing. MMSI: 316024235.

Date/timePositionNaut miles runAvg speedWind from/ knotsBaromVisibWave heightAir tempDewpointWater temp
2018-Jun-19 00:49N 48°57' W 123°42'0 0.3
2018-Jun-18 23:46N 48°57' W 123°41'1 1.9
2018-Jun-18 23:25N 48°57' W 123°40'2 1.4
2018-Jun-18 21:56N 48°56' W 123°43'0 0.7
2018-Jun-18 21:21N 48°55' W 123°42'0 0.2
2018-Jun-18 20:58N 48°55' W 123°43'0 0.1
2018-Jun-18 20:20N 48°55' W 123°42'0 0.6
2018-Jun-18 20:00N 48°56' W 123°43'1 1.8
2018-Jun-18 19:20N 48°57' W 123°42'0 0.1
2018-Jun-18 18:57N 48°57' W 123°41'0 0.3
2018-Jun-18 18:30N 48°57' W 123°41'0 0.4
2018-Jun-18 17:59N 48°56' W 123°41'1 1.3
2018-Jun-18 17:29N 48°56' W 123°41'1 1.2
2018-Jun-18 17:00N 48°55' W 123°40'1 1.3
2018-Jun-18 16:28N 48°55' W 123°39'1 1.6
2018-Jun-18 16:00N 48°54' W 123°38'1 2.1
2018-Jun-18 15:30N 48°54' W 123°37'1 1.9
2018-Jun-18 15:00N 48°53' W 123°36'1 2.0
2018-Jun-18 14:28N 48°52' W 123°36'1 2.0
2018-Jun-18 14:00N 48°51' W 123°35'1 1.9
2018-Jun-18 13:30N 48°50' W 123°35'1 1.7
2018-Jun-18 13:00N 48°49' W 123°35'1 1.6
2018-Jun-18 12:30N 48°49' W 123°34'1 1.7
2018-Jun-18 12:00N 48°48' W 123°33'1 2.0
2018-Jun-18 11:30N 48°47' W 123°33'1 2.4
2018-Jun-18 11:00N 48°46' W 123°34'1 1.8
2018-Jun-18 10:30N 48°45' W 123°34'1 1.1
2018-Jun-18 10:00N 48°44' W 123°34'0 0.7
2018-Jun-18 09:30N 48°44' W 123°33'1 1.2
2018-Jun-18 09:00N 48°44' W 123°32'1 1.2
2018-Jun-18 08:30N 48°44' W 123°32'1 1.1
2018-Jun-18 08:00N 48°43' W 123°31'0 0.9
2018-Jun-18 07:30N 48°43' W 123°31'1 1.6
2018-Jun-18 07:00N 48°42' W 123°30'1 2.2
2018-Jun-18 06:30N 48°43' W 123°28'1 2.2
2018-Jun-18 06:00N 48°43' W 123°26'1 2.1
2018-Jun-18 05:30N 48°43' W 123°25'1 1.4
2018-Jun-18 05:00N 48°43' W 123°24'1 1.3
2018-Jun-18 04:30N 48°42' W 123°23'1 1.5
2018-Jun-18 04:00N 48°42' W 123°22'1 1.9
2018-Jun-18 03:30N 48°41' W 123°21'1 1.9
2018-Jun-18 03:00N 48°40' W 123°21'2 3.3
2018-Jun-18 02:30N 48°39' W 123°22'1 2.0
2018-Jun-18 02:00N 48°38' W 123°23'2 3.3
2018-Jun-18 01:27N 48°36' W 123°22'2 4.0
2018-Jun-18 01:00N 48°34' W 123°21'2 3.6
2018-Jun-18 00:29N 48°32' W 123°21'2 2.7
2018-Jun-17 23:55N 48°31' W 123°20'1 2.6
2018-Jun-17 23:28N 48°30' W 123°18'1 2.3
2018-Jun-17 23:00N 48°30' W 123°17'1 2.0
2018-Jun-17 22:30N 48°29' W 123°16'1 1.7
2018-Jun-17 22:00N 48°28' W 123°15'1 1.7
2018-Jun-17 21:30N 48°27' W 123°15'1 1.6
2018-Jun-17 21:00N 48°27' W 123°16'1 1.7
2018-Jun-17 20:30N 48°26' W 123°17'1 1.8
2018-Jun-17 20:00N 48°25' W 123°18'1 1.5
2018-Jun-17 19:30N 48°25' W 123°18'1 1.6
2018-Jun-17 18:57N 48°25' W 123°19'6 0.7
2018-Jun-17 10:23N 48°25' W 123°28'6 0.2
2018-Jun-16 01:21N 48°24' W 123°19'3 7.6
2018-Jun-16 01:00N 48°26' W 123°16'4 8.5
2018-Jun-16 00:30N 48°30' W 123°17'5 8.4
2018-Jun-15 23:51N 48°36' W 123°19'3 7.6
2018-Jun-15 23:30N 48°38' W 123°21'4 8.1
2018-Jun-15 23:00N 48°42' W 123°22'4 8.5
2018-Jun-15 22:30N 48°43' W 123°28'5 9.4
2018-Jun-15 22:00N 48°44' W 123°35'2 3.2
2018-Jun-15 21:30N 48°45' W 123°37'1 1.2
2018-Jun-15 21:00N 48°45' W 123°36'1 2.2
2018-Jun-15 20:30N 48°45' W 123°35'1 2.0
2018-Jun-15 20:00N 48°44' W 123°34'1 1.4
2018-Jun-15 19:30N 48°44' W 123°33'0 0.4
2018-Jun-15 19:00N 48°44' W 123°32'3 5.5
2018-Jun-15 18:30N 48°45' W 123°36'1 1.2
2018-Jun-15 18:00N 48°45' W 123°37'1 1.2
2018-Jun-15 17:30N 48°45' W 123°36'1 1.5
2018-Jun-15 17:00N 48°45' W 123°35'1 1.5
2018-Jun-15 16:30N 48°44' W 123°34'1 1.2
2018-Jun-15 16:00N 48°45' W 123°34'1 2.7
2018-Jun-15 15:30N 48°46' W 123°34'2 3.2
2018-Jun-15 15:00N 48°48' W 123°33'1 2.3
2018-Jun-15 14:30N 48°49' W 123°34'1 2.5
2018-Jun-15 14:00N 48°50' W 123°35'1 2.3
2018-Jun-15 13:30N 48°51' W 123°35'1 2.1
2018-Jun-15 13:00N 48°52' W 123°36'1 2.2
2018-Jun-15 12:30N 48°53' W 123°36'1 2.2
2018-Jun-15 12:00N 48°54' W 123°37'1 2.3
2018-Jun-15 11:30N 48°55' W 123°39'1 2.2
2018-Jun-15 11:00N 48°55' W 123°40'1 2.0
2018-Jun-15 10:29N 48°56' W 123°42'1 1.2
2018-Jun-15 09:57N 48°56' W 123°42'0 0.1
2018-Jun-15 09:29N 48°56' W 123°42'0 0.6
2018-Jun-15 08:50N 48°56' W 123°42'0 0.6
2018-Jun-15 08:30N 48°56' W 123°42'0 0.2
2018-Jun-15 07:07N 48°56' W 123°43'0 2.6
2018-Jun-15 07:01N 48°56' W 123°42'0 0.2
2018-Jun-15 06:30N 48°56' W 123°42'1 1.4
2018-Jun-15 05:57N 48°56' W 123°43'2 3.0
2018-Jun-15 05:19N 48°58' W 123°45'21 1.1
2018-Jun-14 10:25N 49°18' W 123°38'7 1.4
2018-Jun-14 05:26N 49°23' W 123°30'1 1.5
2018-Jun-14 04:56N 49°24' W 123°30'1 1.5
2018-Jun-14 04:29N 49°24' W 123°29'1 1.4
2018-Jun-14 03:54N 49°25' W 123°28'1 1.4
2018-Jun-14 03:30N 49°25' W 123°28'1 1.3
2018-Jun-14 02:33N 49°27' W 123°27'0 1.2
2018-Jun-14 02:20N 49°27' W 123°28'0 1.2
2018-Jun-14 01:57N 49°27' W 123°28'1 1.1
2018-Jun-14 01:30N 49°28' W 123°28'1 1.1
2018-Jun-14 00:59N 49°28' W 123°28'1 1.0
2018-Jun-14 00:28N 49°29' W 123°28'1 1.0
2018-Jun-13 23:43N 49°29' W 123°27'0 0.3
2018-Jun-13 22:15N 49°30' W 123°27'0 0.0
2018-Jun-13 21:58N 49°30' W 123°27'0 0.0
2018-Jun-13 21:30N 49°30' W 123°27'12 4.4
2018-Jun-13 18:54N 49°19' W 123°23'411.1
2018-Jun-13 18:30N 49°16' W 123°18'3 6.3
2018-Jun-13 17:59N 49°14' W 123°14'0 0.0
2018-Jun-13 17:29N 49°14' W 123°14'0 0.0
2018-Jun-13 17:00N 49°14' W 123°14'0 0.0
2018-Jun-13 16:30N 49°14' W 123°14'0 0.0
2018-Jun-13 16:00N 49°14' W 123°14'0 0.0
2018-Jun-13 15:29N 49°14' W 123°14'0 0.0
2018-Jun-13 14:59N 49°14' W 123°14'0 0.0
2018-Jun-13 14:30N 49°14' W 123°14'0 0.0
2018-Jun-13 14:00N 49°14' W 123°14'0 0.0
2018-Jun-13 13:30N 49°14' W 123°14'0 0.0
2018-Jun-13 12:58N 49°14' W 123°14'0 0.0
2018-Jun-13 12:30N 49°14' W 123°14'0 0.6
2018-Jun-13 12:00N 49°14' W 123°14'0 0.1
2018-Jun-13 11:30N 49°14' W 123°14'0 0.5
2018-Jun-13 11:00N 49°14' W 123°14'2 4.4
2018-Jun-13 10:27N 49°15' W 123°17'2 5.1
2018-Jun-13 10:00N 49°14' W 123°14'0 0.3
2018-Jun-13 09:30N 49°14' W 123°14'0 0.0
2018-Jun-13 09:00N 49°14' W 123°14'0 0.0
2018-Jun-13 08:29N 49°14' W 123°14'0 0.0
2018-Jun-13 08:00N 49°14' W 123°14'0 0.0
2018-Jun-13 07:30N 49°14' W 123°14'0 0.0
2018-Jun-13 07:00N 49°14' W 123°14'0 0.4
2018-Jun-13 06:30N 49°14' W 123°14'0 0.9
2018-Jun-13 06:00N 49°14' W 123°14'0 0.4
2018-Jun-13 05:22N 49°14' W 123°14'0 0.0
2018-Jun-13 05:00N 49°14' W 123°14'0 0.0
2018-Jun-13 04:28N 49°14' W 123°14'0 0.0
2018-Jun-13 04:00N 49°14' W 123°14'0 0.0
2018-Jun-13 03:29N 49°14' W 123°14'0 0.0
2018-Jun-13 03:00N 49°14' W 123°14'0 0.4
2018-Jun-13 02:30N 49°14' W 123°14'0 0.3
2018-Jun-13 01:55N 49°14' W 123°14'0 0.0
2018-Jun-13 01:30N 49°14' W 123°14'0 0.2
2018-Jun-13 01:00N 49°14' W 123°14'0 0.1
2018-Jun-13 00:30N 49°14' W 123°14'0 0.1
2018-Jun-13 00:00N 49°14' W 123°14'0 0.2
2018-Jun-12 23:30N 49°14' W 123°14'0 0.5
2018-Jun-12 23:00N 49°14' W 123°14'0 0.6
2018-Jun-12 22:30N 49°14' W 123°14'1 1.0
2018-Jun-12 22:00N 49°14' W 123°14'0 0.4
2018-Jun-12 21:30N 49°14' W 123°14'2 0.7
2018-Jun-12 18:56N 49°15' W 123°16'1 1.2
2018-Jun-12 18:30N 49°15' W 123°17'1 1.6
2018-Jun-12 18:00N 49°15' W 123°18'0 0.1
2018-Jun-12 17:26N 49°15' W 123°18'0 0.6
2018-Jun-12 17:00N 49°15' W 123°18'0 0.4
2018-Jun-12 16:29N 49°15' W 123°18'0 0.5
2018-Jun-12 15:55N 49°15' W 123°18'0 0.4
2018-Jun-12 15:30N 49°15' W 123°18'1 1.2
2018-Jun-12 15:00N 49°14' W 123°18'1 1.1
2018-Jun-12 14:30N 49°14' W 123°18'1 1.7
2018-Jun-12 14:00N 49°13' W 123°18'1 2.1
2018-Jun-12 13:29N 49°12' W 123°18'1 1.8
2018-Jun-12 12:59N 49°11' W 123°19'1 1.6
2018-Jun-12 12:30N 49°11' W 123°20'1 1.9
2018-Jun-12 12:00N 49°11' W 123°22'1 2.2
2018-Jun-12 11:30N 49°11' W 123°23'1 2.4
2018-Jun-12 10:59N 49°10' W 123°25'1 2.2
2018-Jun-12 10:30N 49°10' W 123°27'2 2.2
2018-Jun-12 09:41N 49°09' W 123°29'16 1.8
2018-Jun-12 00:46N 48°56' W 123°43'18 7.2
2018-Jun-11 22:14N 49°11' W 123°28'2 8.7
2018-Jun-11 22:00N 49°12' W 123°25'4 8.8
2018-Jun-11 21:30N 49°14' W 123°19'3 5.5
2018-Jun-11 20:58N 49°14' W 123°15'0 0.4
2018-Jun-11 20:30N 49°14' W 123°14'0 0.0
2018-Jun-11 20:00N 49°14' W 123°14'2 1.3
2018-Jun-11 18:32N 49°15' W 123°17'0 1.4
2018-Jun-11 18:29N 49°15' W 123°17'1 1.7
2018-Jun-11 17:58N 49°16' W 123°18'0 0.6
2018-Jun-11 17:30N 49°15' W 123°18'0 0.4
2018-Jun-11 17:00N 49°15' W 123°18'0 0.1
2018-Jun-11 16:20N 49°15' W 123°18'0 1.3
2018-Jun-11 15:59N 49°16' W 123°18'1 2.4
2018-Jun-11 15:30N 49°16' W 123°20'1 2.0
2018-Jun-11 14:59N 49°16' W 123°21'1 2.4
2018-Jun-11 14:30N 49°16' W 123°23'1 2.5
2018-Jun-11 14:01N 49°17' W 123°25'1 2.7
2018-Jun-11 13:29N 49°17' W 123°27'1 2.6
2018-Jun-11 12:59N 49°18' W 123°29'1 2.5
2018-Jun-11 12:28N 49°18' W 123°31'35 1.2
2018-Jun-10 07:37N 49°38' W 124°14'0 2.5
2018-Jun-10 07:28N 49°39' W 124°14'2 2.6
2018-Jun-10 06:50N 49°40' W 124°14'1 2.7
2018-Jun-10 06:29N 49°41' W 124°14'1 2.5
2018-Jun-10 06:00N 49°43' W 124°14'1 2.0
2018-Jun-10 05:30N 49°43' W 124°13'1 1.8
2018-Jun-10 05:00N 49°44' W 124°12'0 0.8
2018-Jun-10 04:31N 49°44' W 124°11'0 0.2
2018-Jun-10 04:00N 49°44' W 124°11'0 0.1
2018-Jun-10 03:31N 49°44' W 124°11'0 0.5
2018-Jun-10 03:00N 49°44' W 124°12'0 0.0
2018-Jun-10 02:30N 49°44' W 124°12'1 1.3
2018-Jun-10 02:00N 49°43' W 124°12'2 4.1
2018-Jun-10 01:27N 49°41' W 124°13'5 4.7
2018-Jun-10 00:29N 49°37' W 124°11'3 5.1
2018-Jun-09 23:59N 49°35' W 124°10'43 5.7
2018-Jun-09 16:27N 48°56' W 123°41'4 8.4
2018-Jun-09 15:56N 48°52' W 123°38'1 0.8
2018-Jun-09 15:00N 48°53' W 123°37'1 1.0
2018-Jun-09 14:30N 48°53' W 123°38'0 0.0
2018-Jun-09 14:00N 48°53' W 123°38'0 0.6
2018-Jun-09 13:30N 48°53' W 123°38'4 1.1
2018-Jun-09 09:52N 48°56' W 123°43'0 0.4
2018-Jun-09 09:30N 48°55' W 123°43'0 0.2
2018-Jun-09 09:00N 48°55' W 123°43'0 0.9
2018-Jun-09 08:30N 48°56' W 123°43'1 1.4
2018-Jun-09 08:00N 48°56' W 123°43'2 2.7
2018-Jun-09 07:20N 48°58' W 123°45'  

Dump ship's entire track history